This is the latest recevied weather packets stored in our database for station/object dl9mfl-6. If no packets are shown the sender has not sent any weather packets the latest 10 day(s).
| Time | Temp. | Humidity | Pressure | Rain* | Wind** | Luminosity | Snow |
|---|---|---|---|---|---|---|---|
| 1777736667 | 16.67° C | 50% | 1020.5 hPa | 0 mm | - | - | - |
| 1777736658 | 16.67° C | 49% | 1020.4 hPa | 0 mm | - | - | - |
| 1777736654 | 16.67° C | 49% | 1020.5 hPa | 0 mm | - | - | - |
| 1777736650 | 16.67° C | 49% | 1020.5 hPa | 0 mm | - | - | - |
| 1777736646 | 16.67° C | 50% | 1020.5 hPa | 0 mm | - | - | - |
| 1777736642 | 25.56° C | 30% | 1015.8 hPa | 0 mm | - | - | - |
| 1777736638 | 16.67° C | 49% | 1020.4 hPa | 0 mm | - | - | - |
| 1777736630 | 16.11° C | 51% | 1020.5 hPa | 0 mm | - | - | - |
| 1777736626 | 16.11° C | 50% | 1020.5 hPa | 0 mm | - | - | - |
| 1777736616 | 16.11° C | 50% | 1020.4 hPa | 0 mm | - | - | - |
| 1777736612 | 16.11° C | 50% | 1020.4 hPa | 0 mm | - | - | - |
| 1777736609 | 25.56° C | 30% | 1015.8 hPa | 0 mm | - | - | - |
| 1777736604 | 16.11° C | 51% | 1020.4 hPa | 0 mm | - | - | - |
| 1777736594 | 16.11° C | 51% | 1020.5 hPa | 0 mm | - | - | - |
| 1777736590 | 16.11° C | 53% | 1020.4 hPa | 0 mm | - | - | - |
| 1777736567 | 15.56° C | 55% | 1020.5 hPa | 0 mm | - | - | - |
| 1777736563 | 15.56° C | 55% | 1020.5 hPa | 0 mm | - | - | - |
| 1777736559 | 15.56° C | 55% | 1020.6 hPa | 0 mm | - | - | - |
| 1777736555 | 15° C | 55% | 1020.5 hPa | 0 mm | - | - | - |
| 1777736546 | 15° C | 56% | 1020.5 hPa | 0 mm | - | - | - |
| 1777736542 | 13.89° C | 60% | 1020.5 hPa | 0 mm | - | - | - |
| 1777736538 | 13.89° C | 60% | 1020.5 hPa | 0 mm | - | - | - |
| 1777736534 | 13.33° C | 61% | 1020.6 hPa | 0 mm | - | - | - |
| 1777736530 | 13.33° C | 61% | 1020.5 hPa | 0 mm | - | - | - |
| 1777736526 | 13.33° C | 62% | 1020.6 hPa | 0 mm | - | - | - |
* Rain latest hour (hover to see other rain measurements)
** Current wind speed in m/s (hover to see current wind gust speed)